createdAt,value
2023-05-19T00:02:09.435Z,70.09
2023-05-19T00:05:15.174Z,70.21
2023-05-19T00:08:18.442Z,69.90
2023-05-19T00:11:22.845Z,70.01
2023-05-19T00:14:25.484Z,69.95
2023-05-19T00:17:27.804Z,70.46
2023-05-19T00:20:30.414Z,70.92
2023-05-19T00:23:32.869Z,71.01
2023-05-19T00:26:35.111Z,71.13
2023-05-19T00:29:40.494Z,70.84
2023-05-19T00:32:42.864Z,70.90
2023-05-19T00:35:45.306Z,70.87
2023-05-19T00:38:47.597Z,71.57
2023-05-19T00:41:49.885Z,71.14
2023-05-19T00:44:52.413Z,71.17
2023-05-19T00:47:54.758Z,71.46
2023-05-19T00:51:04.817Z,71.31
2023-05-19T00:54:07.231Z,70.86
2023-05-19T00:57:09.520Z,69.92
2023-05-19T01:00:12.618Z,69.08
2023-05-19T01:03:15.181Z,69.44
2023-05-19T01:06:19.279Z,68.96
2023-05-19T01:09:22.652Z,69.05
2023-05-19T01:12:26.062Z,68.77
2023-05-19T01:15:28.871Z,69.14
2023-05-19T01:18:35.703Z,68.44
2023-05-19T01:22:13.210Z,68.98
2023-05-19T01:25:33.851Z,69.48
2023-05-19T01:28:51.029Z,69.42
2023-05-19T01:31:54.686Z,69.34
2023-05-19T01:34:57.269Z,70.11
2023-05-19T01:38:01.151Z,69.93
2023-05-19T01:41:04.464Z,70.52
2023-05-19T01:44:07.626Z,70.82
2023-05-19T01:47:10.893Z,71.15
2023-05-19T01:50:13.208Z,71.21
2023-05-19T01:53:15.487Z,71.48
2023-05-19T01:56:22.890Z,71.66
2023-05-19T01:59:41.790Z,71.54
2023-05-19T02:03:01.310Z,71.11
2023-05-19T02:06:10.277Z,71.61
2023-05-19T02:09:16.224Z,71.84
2023-05-19T02:12:44.727Z,71.53
2023-05-19T02:15:48.064Z,71.75
2023-05-19T02:18:52.072Z,71.64
2023-05-19T02:21:54.412Z,71.56
2023-05-19T02:24:57.545Z,71.06
2023-05-19T02:28:00.029Z,70.77
2023-05-19T02:31:08.791Z,71.55
2023-05-19T02:34:11.251Z,71.51
2023-05-19T02:37:17.001Z,71.03
2023-05-19T02:40:19.757Z,71.21
2023-05-19T02:43:22.069Z,72.35
2023-05-19T02:46:24.491Z,71.97
2023-05-19T02:49:27.670Z,71.92
2023-05-19T02:52:29.951Z,72.37
2023-05-19T02:55:32.215Z,73.00
2023-05-19T02:58:34.502Z,73.23
2023-05-19T03:01:37.801Z,72.93
2023-05-19T03:07:44.535Z,73.32
2023-05-19T03:10:47.183Z,73.24
2023-05-19T03:13:49.438Z,73.24
2023-05-19T03:16:52.299Z,73.21
2023-05-19T03:19:54.731Z,73.06
2023-05-19T03:22:58.480Z,72.09
2023-05-19T03:26:01.311Z,72.03
2023-05-19T03:29:03.911Z,72.47
2023-05-19T03:32:08.602Z,72.53
2023-05-19T03:35:11.593Z,72.34
2023-05-19T03:38:13.874Z,72.73
2023-05-19T03:41:23.238Z,72.35
2023-05-19T03:44:25.658Z,72.38
2023-05-19T03:47:28.121Z,72.64
2023-05-19T03:50:40.161Z,72.29
2023-05-19T03:53:57.180Z,72.86
2023-05-19T03:56:59.678Z,72.24
2023-05-19T04:00:02.882Z,71.89
2023-05-19T04:03:14.525Z,71.23
2023-05-19T04:06:17.615Z,71.38
2023-05-19T04:09:19.945Z,71.34
2023-05-19T04:12:22.352Z,70.92
2023-05-19T04:15:24.831Z,71.52
2023-05-19T04:18:28.946Z,70.24
2023-05-19T04:21:31.624Z,70.96
2023-05-19T04:24:33.914Z,70.97
2023-05-19T04:27:39.334Z,71.14
2023-05-19T04:30:42.634Z,70.15
2023-05-19T04:33:44.878Z,70.17
2023-05-19T04:36:48.071Z,69.55
2023-05-19T04:39:52.214Z,69.67
2023-05-19T04:42:56.050Z,69.15
2023-05-19T04:45:58.671Z,68.74
2023-05-19T04:49:01.463Z,68.68
2023-05-19T04:52:04.294Z,67.71
2023-05-19T04:55:07.967Z,67.79
2023-05-19T04:58:11.213Z,66.71
2023-05-19T05:01:16.477Z,65.26
2023-05-19T05:04:19.790Z,65.12
2023-05-19T05:07:22.805Z,64.79
2023-05-19T05:10:27.673Z,63.84
2023-05-19T05:13:30.237Z,64.98
2023-05-19T05:16:34.057Z,63.84
2023-05-19T05:19:36.636Z,64.60
2023-05-19T05:22:39.406Z,63.71
2023-05-19T05:25:44.243Z,65.41
2023-05-19T05:28:47.003Z,64.60
2023-05-19T05:31:50.327Z,65.04
2023-05-19T05:34:52.654Z,64.33
2023-05-19T05:37:55.892Z,64.02
2023-05-19T05:40:58.319Z,63.61
2023-05-19T05:44:04.507Z,63.68
2023-05-19T05:47:07.411Z,62.73
2023-05-19T05:50:10.159Z,62.26
2023-05-19T05:53:18.634Z,62.54
2023-05-19T05:56:22.298Z,62.94
2023-05-19T05:59:28.176Z,62.73
2023-05-19T06:02:30.797Z,62.41
2023-05-19T06:05:34.300Z,61.60
2023-05-19T06:08:37.487Z,60.68
2023-05-19T06:11:39.625Z,60.32
2023-05-19T06:14:42.483Z,60.50
2023-05-19T06:18:09.205Z,59.81
2023-05-19T06:21:13.335Z,59.16
2023-05-19T06:24:16.734Z,58.94
2023-05-19T06:27:19.053Z,57.83
2023-05-19T06:30:22.069Z,56.95
2023-05-19T06:33:41.674Z,56.24
2023-05-19T06:36:44.093Z,55.51
2023-05-19T06:39:47.292Z,54.14
2023-05-19T06:42:49.667Z,54.26
2023-05-19T06:45:58.059Z,54.44
2023-05-19T06:49:01.427Z,55.50
2023-05-19T06:52:07.322Z,54.89
2023-05-19T06:55:09.876Z,54.42
2023-05-19T06:58:14.043Z,55.00
2023-05-19T07:01:16.519Z,54.64
2023-05-19T07:04:24.572Z,55.07
2023-05-19T07:07:27.163Z,52.27
2023-05-19T07:10:31.805Z,51.91
2023-05-19T07:13:35.812Z,52.31
2023-05-19T07:16:38.250Z,52.91
2023-05-19T07:19:41.346Z,50.89
2023-05-19T07:22:43.929Z,48.36
2023-05-19T07:25:46.254Z,45.00
2023-05-19T07:28:48.523Z,44.45
2023-05-19T07:31:54.277Z,40.29
2023-05-19T07:34:56.703Z,40.33
2023-05-19T07:37:59.087Z,39.21
2023-05-19T07:41:02.412Z,38.58
2023-05-19T07:44:07.833Z,38.63
2023-05-19T07:47:10.402Z,37.67
2023-05-19T07:50:12.682Z,37.63
2023-05-19T07:53:15.507Z,35.98
2023-05-19T07:56:17.842Z,36.34
2023-05-19T07:59:20.111Z,38.12
2023-05-19T08:02:22.461Z,36.51
2023-05-19T08:05:26.071Z,36.97
2023-05-19T08:08:28.367Z,36.59
2023-05-19T08:11:30.833Z,39.53
2023-05-19T08:14:34.890Z,41.28
2023-05-19T08:17:37.656Z,38.91
2023-05-19T08:20:39.941Z,42.39
2023-05-19T08:23:42.241Z,42.68
2023-05-19T08:26:44.630Z,44.10
2023-05-19T08:29:46.949Z,44.19
2023-05-19T08:32:49.288Z,45.64
2023-05-19T08:35:51.758Z,44.74
2023-05-19T08:38:54.031Z,45.41
2023-05-19T08:41:56.506Z,46.46
2023-05-19T08:45:00.011Z,47.62
2023-05-19T08:48:03.390Z,48.54
2023-05-19T08:51:33.255Z,47.97
2023-05-19T08:54:44.896Z,47.78
2023-05-19T08:57:48.937Z,48.84
2023-05-19T09:00:52.185Z,49.13
2023-05-19T09:03:55.055Z,49.87
2023-05-19T09:06:58.866Z,48.77
2023-05-19T09:10:02.084Z,49.64
2023-05-19T09:13:05.211Z,49.49
2023-05-19T09:16:08.376Z,49.52
2023-05-19T09:19:16.072Z,49.10
2023-05-19T09:22:21.326Z,49.54
2023-05-19T09:25:24.026Z,48.01
2023-05-19T09:28:30.608Z,48.18
2023-05-19T09:31:33.763Z,48.62
2023-05-19T09:34:41.740Z,49.59
2023-05-19T09:37:44.125Z,48.58
2023-05-19T09:40:48.998Z,48.48
2023-05-19T09:43:56.249Z,48.81
2023-05-19T09:46:58.864Z,49.46
2023-05-19T09:50:01.145Z,48.92
2023-05-19T09:53:04.110Z,48.46
2023-05-19T09:56:08.764Z,48.78
2023-05-19T09:59:12.468Z,48.03
2023-05-19T10:02:17.821Z,48.12
2023-05-19T10:05:21.139Z,48.28
2023-05-19T10:08:26.457Z,48.47
2023-05-19T10:11:30.233Z,48.75
2023-05-19T10:14:32.507Z,48.17
2023-05-19T10:17:36.166Z,46.89
2023-05-19T10:20:39.893Z,48.41
2023-05-19T10:23:42.197Z,47.99
2023-05-19T10:26:46.464Z,47.44
2023-05-19T10:29:50.262Z,47.93
2023-05-19T10:32:54.730Z,47.69
2023-05-19T10:36:12.499Z,47.65
2023-05-19T10:39:19.350Z,48.03
2023-05-19T10:42:41.068Z,49.01
2023-05-19T10:45:52.015Z,48.81
2023-05-19T10:48:54.648Z,48.42
2023-05-19T10:51:57.269Z,48.88
2023-05-19T10:55:01.208Z,48.22
2023-05-19T10:58:03.844Z,48.02
2023-05-19T11:01:30.111Z,48.48
2023-05-19T11:04:54.193Z,48.56
2023-05-19T11:08:02.229Z,48.93
2023-05-19T11:11:17.648Z,48.87
2023-05-19T11:14:19.924Z,48.93
2023-05-19T11:17:23.755Z,47.98
2023-05-19T11:20:27.027Z,48.91
2023-05-19T11:23:35.456Z,49.82
2023-05-19T11:26:44.152Z,49.13
2023-05-19T11:29:48.402Z,48.91
2023-05-19T11:32:50.876Z,48.64
2023-05-19T11:35:57.606Z,48.32
2023-05-19T11:39:00.181Z,47.90
2023-05-19T11:42:02.576Z,48.47
2023-05-19T11:45:06.340Z,49.83
2023-05-19T11:48:12.851Z,49.58
2023-05-19T11:51:16.473Z,49.01
2023-05-19T11:54:19.291Z,48.92
2023-05-19T11:57:22.544Z,47.38
2023-05-19T12:00:33.569Z,47.98
2023-05-19T12:03:36.027Z,48.66
2023-05-19T12:06:38.375Z,49.15
2023-05-19T12:09:40.613Z,48.92
2023-05-19T12:12:45.180Z,49.11
2023-05-19T12:15:47.477Z,49.11
2023-05-19T12:18:49.926Z,48.72
2023-05-19T12:21:53.098Z,48.40
2023-05-19T12:24:56.185Z,48.61
2023-05-19T12:27:59.686Z,48.00
2023-05-19T12:31:02.806Z,48.55
2023-05-19T12:34:05.099Z,47.97
2023-05-19T12:37:07.448Z,48.39
2023-05-19T12:40:10.339Z,48.42
2023-05-19T12:43:22.617Z,47.92
2023-05-19T12:46:25.073Z,48.78
2023-05-19T12:49:27.431Z,48.45
2023-05-19T12:52:31.121Z,48.82
2023-05-19T12:55:41.772Z,48.61
2023-05-19T12:58:44.217Z,48.43
2023-05-19T13:01:46.544Z,49.07
2023-05-19T13:04:48.969Z,48.30
2023-05-19T13:08:05.357Z,48.81
2023-05-19T13:11:07.654Z,49.20
2023-05-19T13:14:10.505Z,49.19
2023-05-19T13:17:12.760Z,49.54
2023-05-19T13:20:15.189Z,48.18
2023-05-19T13:23:17.571Z,47.23
2023-05-19T13:26:19.976Z,47.35
2023-05-19T13:29:22.448Z,47.32
2023-05-19T13:32:24.934Z,47.74
2023-05-19T13:35:27.878Z,47.85
2023-05-19T13:38:30.860Z,48.64
2023-05-19T13:41:33.192Z,49.06
2023-05-19T13:44:35.555Z,48.98
2023-05-19T13:47:38.690Z,48.45
2023-05-19T13:50:41.003Z,48.94
2023-05-19T13:53:43.350Z,49.99
2023-05-19T13:56:49.020Z,49.40
2023-05-19T14:00:01.562Z,47.48
2023-05-19T14:03:16.274Z,46.66
2023-05-19T14:06:18.676Z,46.21
2023-05-19T14:09:21.118Z,46.34
2023-05-19T14:12:30.640Z,47.36
2023-05-19T14:15:39.183Z,46.30
2023-05-19T14:18:41.551Z,46.56
2023-05-19T14:21:43.943Z,47.87
2023-05-19T14:24:46.223Z,48.25
2023-05-19T14:27:48.590Z,48.29
2023-05-19T14:30:51.129Z,48.11
2023-05-19T14:33:53.499Z,46.75
2023-05-19T14:36:56.153Z,44.88
2023-05-19T14:39:58.611Z,45.35
2023-05-19T14:43:00.900Z,44.29
2023-05-19T14:46:03.213Z,45.28
2023-05-19T14:49:06.610Z,46.10
2023-05-19T14:52:08.996Z,46.80
2023-05-19T14:55:11.264Z,46.54
2023-05-19T14:58:27.385Z,46.90
2023-05-19T15:01:31.166Z,45.65
2023-05-19T15:04:33.469Z,45.27
2023-05-19T15:07:36.137Z,44.83
2023-05-19T15:10:38.385Z,45.22
2023-05-19T15:13:40.615Z,45.50
2023-05-19T15:16:43.065Z,45.32
2023-05-19T15:19:45.497Z,45.28
2023-05-19T15:22:47.742Z,45.33
2023-05-19T15:25:50.024Z,45.45
2023-05-19T15:28:52.683Z,45.21
2023-05-19T15:31:56.053Z,45.65
2023-05-19T15:34:58.382Z,44.98
2023-05-19T15:38:06.024Z,45.33
2023-05-19T15:41:08.901Z,44.68
2023-05-19T15:44:11.207Z,45.27
2023-05-19T15:47:13.817Z,44.57
2023-05-19T15:50:16.871Z,44.79
2023-05-19T15:53:20.232Z,45.11
2023-05-19T15:56:22.601Z,44.72
2023-05-19T15:59:25.385Z,44.89
2023-05-19T16:02:27.790Z,44.75
2023-05-19T16:05:30.182Z,44.43
2023-05-19T16:08:32.530Z,44.50
2023-05-19T16:11:34.899Z,44.51
2023-05-19T16:14:37.844Z,45.05
2023-05-19T16:17:40.296Z,44.74
2023-05-19T16:23:46.286Z,45.46
2023-05-19T16:26:48.720Z,45.40
2023-05-19T16:29:51.168Z,45.19
2023-05-19T16:32:54.538Z,45.94
2023-05-19T16:35:58.335Z,47.57
2023-05-19T16:39:00.919Z,47.87
2023-05-19T16:42:04.666Z,48.85
2023-05-19T16:45:07.570Z,49.26
2023-05-19T16:48:10.043Z,49.30
2023-05-19T16:51:12.669Z,49.36
2023-05-19T16:54:14.892Z,49.31
2023-05-19T16:57:17.075Z,49.07
2023-05-19T17:00:22.408Z,48.80
2023-05-19T17:03:24.844Z,48.15
2023-05-19T17:06:27.385Z,48.48
2023-05-19T17:09:29.669Z,48.59
2023-05-19T17:12:31.952Z,48.47
2023-05-19T17:15:34.873Z,48.57
2023-05-19T17:18:37.456Z,48.93
2023-05-19T17:21:40.499Z,49.09
2023-05-19T17:24:42.832Z,48.92
2023-05-19T17:27:45.134Z,49.29
2023-05-19T17:30:47.772Z,49.65
2023-05-19T17:33:50.481Z,50.21
2023-05-19T17:36:53.524Z,50.80
2023-05-19T17:39:55.847Z,51.06
2023-05-19T17:42:58.684Z,51.16
2023-05-19T17:46:01.474Z,51.21
2023-05-19T17:49:03.649Z,51.07
2023-05-19T17:52:06.595Z,51.18
2023-05-19T17:55:11.922Z,51.31
2023-05-19T17:58:14.396Z,50.93
2023-05-19T18:01:24.192Z,50.71
2023-05-19T18:04:27.833Z,50.64
2023-05-19T18:07:31.548Z,50.74
2023-05-19T18:10:36.959Z,50.02
2023-05-19T18:13:39.316Z,50.38
2023-05-19T18:16:41.831Z,50.23
2023-05-19T18:19:44.185Z,50.25
2023-05-19T18:22:47.030Z,50.61
2023-05-19T18:25:51.725Z,50.59
2023-05-19T18:28:53.988Z,50.85
2023-05-19T18:31:56.284Z,50.90
2023-05-19T18:34:58.625Z,52.61
2023-05-19T18:38:00.985Z,52.61
2023-05-19T18:41:03.400Z,53.05
2023-05-19T18:44:07.987Z,54.11
2023-05-19T18:47:11.049Z,54.07
2023-05-19T18:50:13.382Z,54.56
2023-05-19T18:53:15.926Z,54.35
2023-05-19T18:56:25.181Z,54.56
2023-05-19T18:59:27.661Z,54.30
2023-05-19T19:02:29.995Z,54.76
2023-05-19T19:05:32.349Z,55.25
2023-05-19T19:08:34.595Z,55.35
2023-05-19T19:11:37.007Z,55.33
2023-05-19T19:14:39.302Z,55.32
2023-05-19T19:17:42.069Z,55.74
2023-05-19T19:20:44.568Z,56.57
2023-05-19T19:23:46.832Z,57.18
2023-05-19T19:26:49.104Z,57.57
2023-05-19T19:29:51.334Z,57.76
2023-05-19T19:32:54.865Z,58.12
2023-05-19T19:35:57.311Z,59.39
2023-05-19T19:38:59.691Z,59.33
2023-05-19T19:42:02.082Z,59.48
2023-05-19T19:45:05.785Z,60.00
2023-05-19T19:48:08.184Z,59.95
2023-05-19T19:51:10.652Z,61.13
2023-05-19T19:54:12.913Z,61.65
2023-05-19T19:57:17.313Z,60.75
2023-05-19T20:00:19.779Z,61.01
2023-05-19T20:03:22.283Z,61.20
2023-05-19T20:06:24.757Z,61.85
2023-05-19T20:09:27.108Z,61.52
2023-05-19T20:12:30.202Z,61.81
2023-05-19T20:15:32.462Z,62.04
2023-05-19T20:18:34.718Z,62.07
2023-05-19T20:21:37.058Z,62.07
2023-05-19T20:24:39.484Z,60.97
2023-05-19T20:27:41.738Z,61.37
2023-05-19T20:30:44.172Z,62.12
2023-05-19T20:33:46.445Z,62.62
2023-05-19T20:36:48.720Z,62.48
2023-05-19T20:39:51.012Z,62.42
2023-05-19T20:42:53.374Z,61.54
2023-05-19T20:45:55.799Z,61.01
2023-05-19T20:48:58.173Z,61.22
2023-05-19T20:52:00.546Z,62.13
2023-05-19T20:55:03.251Z,61.36
2023-05-19T20:58:05.612Z,61.26
2023-05-19T21:01:07.943Z,60.91
2023-05-19T21:04:10.360Z,61.02
2023-05-19T21:07:12.866Z,61.24
2023-05-19T21:10:15.352Z,60.75
2023-05-19T21:13:18.130Z,60.59
2023-05-19T21:16:20.608Z,60.74
2023-05-19T21:19:23.407Z,61.01
2023-05-19T21:22:26.754Z,60.56
2023-05-19T21:25:29.069Z,60.64
2023-05-19T21:28:31.469Z,61.23
2023-05-19T21:31:35.310Z,61.15
2023-05-19T21:34:38.926Z,61.42
2023-05-19T21:37:41.427Z,61.11
2023-05-19T21:40:47.112Z,62.33
2023-05-19T21:43:49.469Z,62.13
2023-05-19T21:46:51.972Z,62.08
2023-05-19T21:49:54.427Z,62.35
2023-05-19T21:52:56.766Z,62.63
2023-05-19T21:55:59.641Z,62.91
2023-05-19T21:59:01.929Z,63.36
2023-05-19T22:02:04.959Z,63.48
2023-05-19T22:05:07.663Z,63.21
2023-05-19T22:08:09.991Z,63.34
2023-05-19T22:11:14.863Z,63.22
2023-05-19T22:14:17.623Z,64.33
2023-05-19T22:17:19.818Z,64.17
2023-05-19T22:20:22.017Z,64.18
2023-05-19T22:23:24.377Z,64.28
2023-05-19T22:26:27.270Z,65.04
2023-05-19T22:29:29.402Z,64.72
2023-05-19T22:32:32.816Z,64.90
2023-05-19T22:35:37.735Z,64.99
2023-05-19T22:38:40.070Z,64.50
2023-05-19T22:41:42.523Z,63.63
2023-05-19T22:44:45.913Z,63.79
2023-05-19T22:47:48.458Z,64.80
2023-05-19T22:50:50.984Z,63.83
2023-05-19T22:53:53.303Z,63.65
2023-05-19T22:56:55.658Z,64.20
2023-05-19T22:59:57.901Z,64.76
2023-05-19T23:03:00.246Z,63.69
2023-05-19T23:06:02.610Z,64.09
2023-05-19T23:09:05.047Z,64.30
2023-05-19T23:12:07.399Z,64.83
2023-05-19T23:15:10.985Z,64.61
2023-05-19T23:18:15.068Z,64.51
2023-05-19T23:21:17.526Z,64.50
2023-05-19T23:24:20.159Z,64.69
2023-05-19T23:27:22.784Z,64.33
2023-05-19T23:30:25.132Z,64.33
2023-05-19T23:33:27.424Z,64.55
2023-05-19T23:36:29.691Z,64.98
2023-05-19T23:39:31.964Z,64.89
2023-05-19T23:42:34.635Z,65.00
2023-05-19T23:45:36.904Z,64.83
2023-05-19T23:48:39.457Z,64.87
2023-05-19T23:51:41.747Z,65.12
2023-05-19T23:54:44.065Z,64.91
2023-05-19T23:57:46.295Z,64.49
